Time;durP1;ratioP1;P1;durP2;ratioP2;P2;SDS_P1;SDS_P2;PMS_P1;PMS_P2;Temp;Humidity;BMP_temperature;BMP_pressure;BME280_temperature;BME280_humidity;BME280_pressure;Samples;Min_cycle;Max_cycle;Signal;HPM_P1;HPM_P2
2021/08/29 00:00:23;;;;;;;1.07;0.97;;;;;22.50;100836.00;;;;2070992;28;20210;-69
2021/08/29 00:01:24;;;;;;;1.20;1.10;;;;;22.50;100844.00;;;;2070856;28;20584;-69
2021/08/29 00:02:24;;;;;;;1.40;1.03;;;;;22.50;100844.00;;;;2071673;28;20222;-69
2021/08/29 00:03:26;;;;;;;1.20;1.10;;;;;22.50;100839.00;;;;2071778;28;20304;-69
2021/08/29 00:04:26;;;;;;;0.85;0.85;;;;;22.50;100829.00;;;;2071847;28;20279;-69
2021/08/29 00:05:27;;;;;;;1.60;0.83;;;;;22.50;100836.00;;;;2071107;28;20636;-69
2021/08/29 00:06:27;;;;;;;1.30;1.20;;;;;22.50;100835.00;;;;2071646;28;20799;-69
2021/08/29 00:07:27;;;;;;;1.30;0.90;;;;;22.50;100828.00;;;;2071148;28;20241;-69
2021/08/29 00:08:28;;;;;;;1.80;0.97;;;;;22.50;100833.00;;;;2071270;28;20218;-69
2021/08/29 00:09:28;;;;;;;1.00;0.90;;;;;22.60;100846.00;;;;2071514;28;20268;-69
2021/08/29 00:10:28;;;;;;;1.17;1.07;;;;;22.50;100846.00;;;;2071851;28;20242;-69
2021/08/29 00:11:29;;;;;;;1.40;1.07;;;;;22.50;100836.00;;;;2067897;28;20218;-69
2021/08/29 00:12:29;;;;;;;1.40;1.27;;;;;22.50;100837.00;;;;2071000;28;20214;-69
2021/08/29 00:13:29;;;;;;;1.00;0.90;;;;;22.50;100844.00;;;;2066763;28;20218;-69
2021/08/29 00:14:30;;;;;;;1.20;1.10;;;;;22.50;100843.00;;;;2071855;28;20241;-69
2021/08/29 00:15:30;;;;;;;1.17;1.07;;;;;22.50;100838.00;;;;2071689;28;20297;-69
2021/08/29 00:16:30;;;;;;;1.40;1.27;;;;;22.50;100834.00;;;;2071587;28;20214;-69
2021/08/29 00:17:31;;;;;;;1.20;0.93;;;;;22.50;100838.00;;;;2071682;28;20218;-69
2021/08/29 00:18:31;;;;;;;1.23;1.13;;;;;22.50;100839.00;;;;2071803;28;20225;-68
2021/08/29 00:19:32;;;;;;;1.17;0.97;;;;;22.50;100837.00;;;;2070888;28;20222;-69
2021/08/29 00:20:32;;;;;;;1.20;1.00;;;;;22.50;100835.00;;;;2071040;28;20218;-69
2021/08/29 00:21:32;;;;;;;1.03;0.93;;;;;22.50;100843.00;;;;2071671;28;20226;-69
2021/08/29 00:22:33;;;;;;;1.77;1.37;;;;;22.50;100846.00;;;;2071651;28;20253;-69
2021/08/29 00:23:33;;;;;;;1.20;1.10;;;;;22.50;100833.00;;;;2071663;28;20269;-69
2021/08/29 00:24:33;;;;;;;1.70;1.33;;;;;22.50;100845.00;;;;2071821;28;20224;-69
2021/08/29 00:25:34;;;;;;;1.27;1.17;;;;;22.50;100833.00;;;;2071671;28;20233;-69
2021/08/29 00:26:34;;;;;;;1.07;0.97;;;;;22.50;100833.00;;;;2071853;28;20242;-70
2021/08/29 00:27:34;;;;;;;1.17;1.07;;;;;22.50;100832.00;;;;2071070;28;20214;-69
2021/08/29 00:28:35;;;;;;;1.40;1.30;;;;;22.50;100833.00;;;;2070966;28;20240;-69
2021/08/29 00:29:35;;;;;;;1.30;1.20;;;;;22.50;100831.00;;;;2071606;28;20225;-69
2021/08/29 00:30:35;;;;;;;1.30;1.20;;;;;22.50;100829.00;;;;2071615;28;20225;-69
2021/08/29 00:31:36;;;;;;;1.10;1.00;;;;;22.50;100823.00;;;;2071636;28;20708;-69
2021/08/29 00:32:36;;;;;;;1.00;0.87;;;;;22.50;100832.00;;;;2071127;28;20621;-69
2021/08/29 00:33:36;;;;;;;1.20;1.10;;;;;22.50;100821.00;;;;2071002;28;20221;-69
2021/08/29 00:34:37;;;;;;;1.10;1.00;;;;;22.50;100820.00;;;;2071641;28;20324;-69
2021/08/29 00:35:37;;;;;;;1.07;0.97;;;;;22.50;100821.00;;;;2071055;28;20525;-69
2021/08/29 00:36:37;;;;;;;1.23;1.13;;;;;22.50;100824.00;;;;2071458;28;20214;-69
2021/08/29 00:37:38;;;;;;;1.30;1.20;;;;;22.50;100828.00;;;;2071668;28;20210;-69
2021/08/29 00:38:38;;;;;;;1.30;1.00;;;;;22.50;100825.00;;;;2071543;28;20295;-69
2021/08/29 00:39:39;;;;;;;1.10;1.00;;;;;22.50;100815.00;;;;2071422;28;20217;-69
2021/08/29 00:40:39;;;;;;;1.40;1.30;;;;;22.50;100821.00;;;;2071766;28;20202;-69
2021/08/29 00:41:41;;;;;;;1.30;1.20;;;;;22.50;100815.00;;;;2070894;28;20249;-69
2021/08/29 00:42:42;;;;;;;1.33;1.00;;;;;22.50;100826.00;;;;2070917;28;20214;-69
2021/08/29 00:43:43;;;;;;;1.30;1.20;;;;;22.50;100828.00;;;;2071327;28;20218;-69
2021/08/29 00:44:43;;;;;;;1.33;1.07;;;;;22.50;100822.00;;;;2071244;28;20210;-69
2021/08/29 00:45:43;;;;;;;1.00;0.90;;;;;22.50;100826.00;;;;2071051;28;20214;-69
2021/08/29 00:46:45;;;;;;;1.10;1.00;;;;;22.50;100821.00;;;;2072335;28;20260;-69
2021/08/29 00:47:45;;;;;;;1.10;1.00;;;;;22.50;100827.00;;;;2072421;28;20218;-69
2021/08/29 00:48:46;;;;;;;1.23;1.13;;;;;22.50;100824.00;;;;2072601;28;20260;-70
2021/08/29 00:49:46;;;;;;;1.27;1.17;;;;;22.50;100823.00;;;;2072302;28;20218;-69
2021/08/29 00:50:46;;;;;;;1.80;1.10;;;;;22.50;100825.00;;;;2072414;28;20194;-69
2021/08/29 00:51:50;;;;;;;1.20;1.10;;;;;22.50;100823.00;;;;2073239;28;20199;-69
2021/08/29 00:52:50;;;;;;;0.85;0.80;;;;;22.50;100823.00;;;;2064443;28;20211;-69
2021/08/29 00:53:54;;;;;;;1.20;1.10;;;;;22.50;100828.00;;;;2060639;28;20335;-69
2021/08/29 00:54:54;;;;;;;1.20;1.10;;;;;22.50;100825.00;;;;2073136;28;20580;-69
2021/08/29 00:55:55;;;;;;;1.30;1.20;;;;;22.50;100820.00;;;;2071875;28;20213;-69
2021/08/29 00:56:56;;;;;;;1.00;0.90;;;;;22.50;100815.00;;;;2073200;28;20234;-69
2021/08/29 00:57:56;;;;;;;1.23;1.00;;;;;22.50;100826.00;;;;2072791;28;20804;-69
2021/08/29 00:58:56;;;;;;;1.00;0.90;;;;;22.50;100808.00;;;;2073050;28;20213;-69
2021/08/29 00:59:56;;;;;;;1.10;1.07;;;;;22.50;100815.00;;;;2072257;28;20206;-69
2021/08/29 01:00:57;;;;;;;1.27;1.17;;;;;22.50;100817.00;;;;2071850;28;20257;-69
2021/08/29 01:02:10;;;;;;;1.00;0.90;;;;;22.50;100816.00;;;;2072416;28;20206;-69
2021/08/29 01:03:16;;;;;;;1.33;1.10;;;;;22.50;100817.00;;;;2072514;28;20726;-69
2021/08/29 01:04:21;;;;;;;1.27;1.17;;;;;22.50;100807.00;;;;2062453;28;20632;-69
2021/08/29 01:05:29;;;;;;;1.33;1.23;;;;;22.50;100814.00;;;;2072305;28;20221;-69
2021/08/29 01:06:38;;;;;;;1.30;1.20;;;;;22.50;100811.00;;;;2065258;28;20772;-69
2021/08/29 01:08:01;;;;;;;1.33;1.13;;;;;22.50;100798.00;;;;2068789;28;20696;-69
2021/08/29 01:09:03;;;;;;;1.40;1.27;;;;;22.50;100805.00;;;;2071589;28;20209;-69
2021/08/29 01:10:08;;;;;;;1.15;1.05;;;;;22.50;100806.00;;;;2071969;28;20221;-69
2021/08/29 01:11:17;;;;;;;1.15;1.05;;;;;22.50;100796.00;;;;2054981;28;20215;-69
2021/08/29 01:12:17;;;;;;;1.30;1.20;;;;;22.50;100811.00;;;;2054374;28;20228;-69
2021/08/29 01:13:24;;;;;;;1.10;1.00;;;;;22.50;100805.00;;;;2071931;28;20210;-69
2021/08/29 01:14:24;;;;;;;1.25;1.15;;;;;22.50;100807.00;;;;2061248;28;20610;-69
2021/08/29 01:15:27;;;;;;;1.83;1.20;;;;;22.50;100804.00;;;;2064979;28;20214;-69
2021/08/29 01:16:30;;;;;;;1.30;1.08;;;;;22.50;100804.00;;;;2071434;28;20210;-69
2021/08/29 01:17:31;;;;;;;1.30;1.20;;;;;22.50;100804.00;;;;2061283;28;20239;-69
2021/08/29 01:18:33;;;;;;;1.35;1.25;;;;;22.50;100805.00;;;;2068102;28;20215;-69
2021/08/29 01:19:43;;;;;;;1.65;1.55;;;;;22.50;100797.00;;;;2060563;28;20642;-69
2021/08/29 01:20:54;;;;;;;1.10;1.00;;;;;22.50;100807.00;;;;2065610;28;20270;-69
2021/08/29 01:21:55;;;;;;;2.03;1.25;;;;;22.50;100808.00;;;;2072136;28;20221;-69
2021/08/29 01:22:55;;;;;;;1.00;0.90;;;;;22.50;100798.00;;;;2064614;28;20210;-69
2021/08/29 01:23:59;;;;;;;1.60;1.20;;;;;22.50;100803.00;;;;2062961;28;20219;-69
2021/08/29 01:24:59;;;;;;;1.38;1.27;;;;;22.50;100805.00;;;;2052363;28;20204;-69
2021/08/29 01:26:14;;;;;;;1.30;1.20;;;;;22.50;100800.00;;;;2054334;28;20765;-69
2021/08/29 01:27:20;;;;;;;1.30;1.20;;;;;22.50;100800.00;;;;2072399;28;20562;-69
2021/08/29 01:28:20;;;;;;;1.08;0.98;;;;;22.50;100807.00;;;;2063911;28;20222;-69
2021/08/29 01:29:24;;;;;;;1.93;1.03;;;;;22.50;100797.00;;;;2051281;28;21118;-69
2021/08/29 01:30:25;;;;;;;1.38;1.27;;;;;22.50;100811.00;;;;2060863;28;20207;-69
2021/08/29 01:31:26;;;;;;;1.40;1.20;;;;;22.50;100803.00;;;;2063490;28;20720;-69
2021/08/29 01:32:27;;;;;;;1.30;1.20;;;;;22.50;100797.00;;;;2072947;28;20731;-69
2021/08/29 01:33:27;;;;;;;0.97;0.87;;;;;22.50;100812.00;;;;2064116;28;20208;-69
2021/08/29 01:34:27;;;;;;;1.27;1.13;;;;;22.50;100795.00;;;;2046664;28;20205;-69
2021/08/29 01:35:28;;;;;;;1.27;1.17;;;;;22.50;100804.00;;;;2054297;28;20231;-69
2021/08/29 01:36:29;;;;;;;1.27;1.17;;;;;22.50;100808.00;;;;2072080;28;20203;-69
2021/08/29 01:37:29;;;;;;;1.40;1.30;;;;;22.50;100805.00;;;;2069009;28;20234;-68
2021/08/29 01:38:30;;;;;;;1.30;1.10;;;;;22.50;100800.00;;;;2067956;28;20226;-69
2021/08/29 01:39:30;;;;;;;1.37;1.27;;;;;22.50;100804.00;;;;2071723;28;20273;-69
2021/08/29 01:40:30;;;;;;;1.23;1.13;;;;;22.50;100797.00;;;;2064141;28;20211;-69
2021/08/29 01:41:32;;;;;;;1.40;1.20;;;;;22.50;100801.00;;;;2064138;28;20207;-69
2021/08/29 01:42:32;;;;;;;1.20;1.00;;;;;22.50;100807.00;;;;2063935;28;20835;-69
2021/08/29 01:43:33;;;;;;;1.10;1.00;;;;;22.50;100800.00;;;;2063931;28;20218;-69
2021/08/29 01:44:33;;;;;;;2.37;0.97;;;;;22.50;100798.00;;;;2070431;28;20229;-69
2021/08/29 01:45:33;;;;;;;1.10;1.00;;;;;22.50;100805.00;;;;2063984;28;20353;-69
2021/08/29 01:46:34;;;;;;;1.67;1.10;;;;;22.50;100800.00;;;;2072165;28;20213;-69
2021/08/29 01:47:34;;;;;;;1.30;1.10;;;;;22.50;100794.00;;;;2064069;28;20713;-69
2021/08/29 01:48:37;;;;;;;1.23;1.13;;;;;22.50;100789.00;;;;2070327;28;20214;-69
2021/08/29 01:49:37;;;;;;;1.58;1.10;;;;;22.50;100800.00;;;;2072069;28;20353;-69
2021/08/29 01:50:37;;;;;;;1.43;1.20;;;;;22.50;100798.00;;;;2072249;28;20272;-69
2021/08/29 01:51:38;;;;;;;3.03;1.30;;;;;22.50;100803.00;;;;2072116;28;20222;-69
2021/08/29 01:52:38;;;;;;;1.03;0.93;;;;;22.50;100803.00;;;;2072083;28;20246;-69
2021/08/29 01:53:39;;;;;;;1.20;1.10;;;;;22.50;100801.00;;;;2072573;28;20284;-69
2021/08/29 01:54:39;;;;;;;1.17;1.07;;;;;22.50;100806.00;;;;2072791;28;20265;-69
2021/08/29 01:55:40;;;;;;;1.20;1.10;;;;;22.50;100807.00;;;;2072030;28;20222;-69
2021/08/29 01:57:02;;;;;;;1.10;1.00;;;;;22.50;100805.00;;;;2071978;28;20281;-69
2021/08/29 01:58:02;;;;;;;1.13;1.02;;;;;22.50;100805.00;;;;2072026;28;20330;-69
2021/08/29 01:59:03;;;;;;;1.50;1.40;;;;;22.50;100805.00;;;;2071763;28;20781;-70
2021/08/29 02:00:04;;;;;;;1.17;1.07;;;;;22.50;100802.00;;;;2071938;28;20269;-69
2021/08/29 02:01:08;;;;;;;0.90;0.90;;;;;22.50;100797.00;;;;2071873;28;20237;-69
2021/08/29 02:02:12;;;;;;;1.40;1.05;;;;;22.50;100799.00;;;;2071125;28;20545;-69
2021/08/29 02:03:12;;;;;;;1.40;1.30;;;;;22.50;100806.00;;;;2071512;28;20214;-69
2021/08/29 02:04:13;;;;;;;1.40;1.30;;;;;22.50;100805.00;;;;2071843;28;20242;-69
2021/08/29 02:05:13;;;;;;;1.40;1.17;;;;;22.50;100800.00;;;;2072000;28;20210;-69
2021/08/29 02:06:30;;;;;;;1.93;1.40;;;;;22.50;100802.00;;;;2071295;28;20225;-69
2021/08/29 02:07:37;;;;;;;1.40;1.30;;;;;22.50;100806.00;;;;2062291;28;20223;-69
2021/08/29 02:08:41;;;;;;;1.98;1.20;;;;;22.50;100815.00;;;;2061233;28;20215;-69
2021/08/29 02:09:51;;;;;;;1.08;0.90;;;;;22.50;100805.00;;;;2063764;28;20223;-69
2021/08/29 02:10:52;;;;;;;1.33;1.20;;;;;22.50;100801.00;;;;2071517;28;20210;-69
2021/08/29 02:11:52;;;;;;;1.40;1.30;;;;;22.50;100796.00;;;;2071798;28;20245;-69
2021/08/29 02:12:59;;;;;;;1.13;1.03;;;;;22.50;100808.00;;;;2071050;28;20453;-69
2021/08/29 02:14:02;;;;;;;1.30;1.20;;;;;22.50;100809.00;;;;2062346;28;20296;-69
2021/08/29 02:15:06;;;;;;;1.55;1.10;;;;;22.50;100805.00;;;;2067142;28;20242;-69
2021/08/29 02:16:12;;;;;;;1.20;1.10;;;;;22.50;100811.00;;;;2070772;28;20215;-69
2021/08/29 02:17:13;;;;;;;1.20;1.10;;;;;22.50;100799.00;;;;2068256;28;20257;-69
2021/08/29 02:18:13;;;;;;;1.17;1.07;;;;;22.50;100797.00;;;;2061954;28;20241;-69
2021/08/29 02:19:13;;;;;;;1.27;1.17;;;;;22.50;100802.00;;;;2059054;28;20218;-69
2021/08/29 02:20:16;;;;;;;1.23;1.13;;;;;22.50;100801.00;;;;2053497;28;20216;-70
2021/08/29 02:21:16;;;;;;;1.17;1.02;;;;;22.50;100797.00;;;;2052796;28;20223;-69
2021/08/29 02:22:16;;;;;;;1.53;1.40;;;;;22.50;100806.00;;;;2067648;28;20293;-69
2021/08/29 02:23:17;;;;;;;1.67;1.10;;;;;22.50;100801.00;;;;2063379;28;20241;-69
2021/08/29 02:24:21;;;;;;;0.80;0.70;;;;;22.50;100790.00;;;;2060015;28;20222;-69
2021/08/29 02:25:21;;;;;;;1.10;1.00;;;;;22.50;100801.00;;;;2064140;28;20987;-69
2021/08/29 02:26:24;;;;;;;1.63;1.53;;;;;22.50;100801.00;;;;2071320;28;20306;-69
2021/08/29 02:27:24;;;;;;;1.27;1.15;;;;;22.50;100797.00;;;;2071460;28;20293;-69
2021/08/29 02:28:24;;;;;;;1.13;1.03;;;;;22.50;100795.00;;;;2071566;28;20214;-69
2021/08/29 02:29:25;;;;;;;1.40;1.30;;;;;22.50;100796.00;;;;2072336;28;20214;-68
2021/08/29 02:30:26;;;;;;;1.23;1.13;;;;;22.50;100791.00;;;;2071746;28;20213;-69
2021/08/29 02:31:26;;;;;;;1.40;1.20;;;;;22.50;100784.00;;;;2071526;28;20226;-69
2021/08/29 02:32:27;;;;;;;1.40;1.30;;;;;22.50;100788.00;;;;2071961;28;20224;-69
2021/08/29 02:33:27;;;;;;;1.30;1.20;;;;;22.50;100797.00;;;;2063683;28;20638;-69
2021/08/29 02:34:28;;;;;;;1.43;1.33;;;;;22.50;100794.00;;;;2071663;28;20218;-69
2021/08/29 02:35:29;;;;;;;1.50;1.30;;;;;22.50;100789.00;;;;2063534;28;20780;-69
2021/08/29 02:36:29;;;;;;;1.30;1.20;;;;;22.50;100789.00;;;;2063400;28;20214;-69
2021/08/29 02:37:30;;;;;;;1.47;1.37;;;;;22.50;100790.00;;;;2060157;28;20270;-69
2021/08/29 02:38:30;;;;;;;1.27;1.13;;;;;22.50;100785.00;;;;2043516;28;20216;-69
2021/08/29 02:39:30;;;;;;;1.20;1.10;;;;;22.50;100792.00;;;;2055379;28;20267;-69
2021/08/29 02:40:36;;;;;;;1.07;1.07;;;;;22.50;100793.00;;;;2047565;28;20227;-69
2021/08/29 02:41:36;;;;;;;2.03;1.15;;;;;22.50;100790.00;;;;2048673;28;20220;-69
2021/08/29 02:42:37;;;;;;;1.10;1.00;;;;;22.50;100791.00;;;;2055682;28;20227;-69
2021/08/29 02:43:38;;;;;;;1.10;1.00;;;;;22.50;100796.00;;;;2067808;28;20458;-69
2021/08/29 02:44:38;;;;;;;1.50;1.40;;;;;22.50;100788.00;;;;2067820;28;20217;-69
2021/08/29 02:45:40;;;;;;;1.20;1.10;;;;;22.50;100795.00;;;;2059724;28;20215;-69
2021/08/29 02:46:40;;;;;;;1.30;1.20;;;;;22.50;100792.00;;;;2067996;28;20242;-69
2021/08/29 02:47:40;;;;;;;1.37;1.27;;;;;22.50;100789.00;;;;2072288;28;20738;-69
2021/08/29 02:48:44;;;;;;;1.73;1.63;;;;;22.50;100801.00;;;;2072017;28;20625;-69
2021/08/29 02:49:44;;;;;;;1.42;1.33;;;;;22.50;100782.00;;;;2071611;28;20264;-69
2021/08/29 02:50:46;;;;;;;1.10;1.00;;;;;22.50;100784.00;;;;2071596;28;20249;-69
2021/08/29 02:51:48;;;;;;;1.30;1.20;;;;;22.50;100795.00;;;;2060314;28;20211;-69
2021/08/29 02:52:49;;;;;;;2.08;1.40;;;;;22.50;100789.00;;;;2067413;28;20219;-69
2021/08/29 02:53:49;;;;;;;1.80;1.40;;;;;22.50;100789.00;;;;2071515;28;20221;-69
2021/08/29 02:54:50;;;;;;;1.70;1.10;;;;;22.50;100785.00;;;;2071967;28;20211;-69
2021/08/29 02:55:54;;;;;;;1.47;1.37;;;;;22.50;100789.00;;;;2071548;28;20656;-69
2021/08/29 02:56:55;;;;;;;1.70;1.15;;;;;22.50;100786.00;;;;2071579;28;20780;-69
2021/08/29 02:58:06;;;;;;;1.23;1.10;;;;;22.50;100788.00;;;;2072235;28;20702;-70
2021/08/29 02:59:06;;;;;;;1.60;1.33;;;;;22.50;100785.00;;;;2068214;28;20808;-69
2021/08/29 03:00:10;;;;;;;1.80;1.30;;;;;22.50;100791.00;;;;2071390;28;20257;-69
2021/08/29 03:01:10;;;;;;;3.30;1.17;;;;;22.50;100791.00;;;;2063454;28;20706;-69
2021/08/29 03:02:11;;;;;;;1.90;1.70;;;;;22.50;100786.00;;;;2063680;28;20203;-69
2021/08/29 03:03:12;;;;;;;1.37;1.03;;;;;22.40;100786.00;;;;2071994;28;20245;-69
2021/08/29 03:04:13;;;;;;;1.23;1.13;;;;;22.50;100786.00;;;;2071445;28;20296;-69
2021/08/29 03:05:13;;;;;;;1.30;1.20;;;;;22.50;100789.00;;;;2071437;28;20245;-69
2021/08/29 03:06:14;;;;;;;1.50;1.33;;;;;22.50;100790.00;;;;2072074;28;20700;-69
2021/08/29 03:07:14;;;;;;;1.33;1.20;;;;;22.50;100785.00;;;;2071508;28;20691;-69
2021/08/29 03:08:15;;;;;;;1.30;1.20;;;;;22.50;100783.00;;;;2071514;28;20689;-69
2021/08/29 03:09:15;;;;;;;1.20;1.10;;;;;22.40;100783.00;;;;2071498;28;20210;-69
2021/08/29 03:10:16;;;;;;;1.47;1.27;;;;;22.40;100789.00;;;;2072143;28;20218;-69
2021/08/29 03:11:19;;;;;;;1.20;1.03;;;;;22.50;100780.00;;;;2072033;28;20229;-69
2021/08/29 03:12:19;;;;;;;1.48;1.38;;;;;22.50;100780.00;;;;2071339;28;20779;-69
2021/08/29 03:13:19;;;;;;;1.40;1.30;;;;;22.40;100778.00;;;;2071333;28;20273;-69
2021/08/29 03:14:20;;;;;;;1.30;1.10;;;;;22.40;100784.00;;;;2071438;28;20631;-69
2021/08/29 03:15:20;;;;;;;1.40;1.30;;;;;22.40;100774.00;;;;2063246;28;20207;-69
2021/08/29 03:16:20;;;;;;;1.40;1.30;;;;;22.40;100772.00;;;;2063390;28;22826;-69
2021/08/29 03:17:21;;;;;;;1.20;1.10;;;;;22.40;100776.00;;;;2055476;28;20223;-69
2021/08/29 03:18:22;;;;;;;1.60;1.50;;;;;22.50;100775.00;;;;2063464;28;20316;-69
2021/08/29 03:19:22;;;;;;;1.60;1.20;;;;;22.40;100786.00;;;;2055092;28;20327;-69
2021/08/29 03:20:25;;;;;;;1.20;1.10;;;;;22.40;100780.00;;;;2062747;28;20226;-69
2021/08/29 03:21:26;;;;;;;1.10;1.00;;;;;22.40;100773.00;;;;2063748;28;20229;-69
2021/08/29 03:22:26;;;;;;;2.53;1.73;;;;;22.40;100779.00;;;;2071457;28;20226;-70
2021/08/29 03:23:27;;;;;;;1.53;1.30;;;;;22.40;100782.00;;;;2071879;28;20222;-69
2021/08/29 03:24:27;;;;;;;1.60;1.50;;;;;22.40;100781.00;;;;2071958;28;20221;-69
2021/08/29 03:25:28;;;;;;;1.40;1.30;;;;;22.40;100779.00;;;;2071860;28;20226;-69
2021/08/29 03:26:29;;;;;;;1.80;1.50;;;;;22.40;100780.00;;;;2072136;28;20651;-69
2021/08/29 03:27:29;;;;;;;1.30;1.20;;;;;22.40;100781.00;;;;2072147;28;20246;-69
2021/08/29 03:28:30;;;;;;;1.33;1.23;;;;;22.40;100770.00;;;;2071906;28;20219;-69
2021/08/29 03:29:30;;;;;;;1.47;1.20;;;;;22.40;100771.00;;;;2069233;28;20218;-69
2021/08/29 03:30:30;;;;;;;1.23;1.13;;;;;22.40;100770.00;;;;2072041;28;20210;-69
2021/08/29 03:31:31;;;;;;;1.10;1.00;;;;;22.40;100767.00;;;;2071188;28;20313;-69
2021/08/29 03:32:31;;;;;;;1.20;1.10;;;;;22.40;100767.00;;;;2071370;28;20226;-69
2021/08/29 03:33:32;;;;;;;1.30;1.20;;;;;22.50;100778.00;;;;2071908;28;20360;-69
2021/08/29 03:34:32;;;;;;;1.40;1.30;;;;;22.50;100773.00;;;;2062955;28;20251;-69
2021/08/29 03:35:32;;;;;;;1.30;1.20;;;;;22.40;100769.00;;;;2054916;28;20662;-69
2021/08/29 03:36:33;;;;;;;1.37;1.27;;;;;22.40;100758.00;;;;2063025;28;20225;-69
2021/08/29 03:37:34;;;;;;;1.10;1.00;;;;;22.40;100761.00;;;;2071257;28;20879;-69
2021/08/29 03:38:36;;;;;;;1.93;1.50;;;;;22.40;100764.00;;;;2071463;28;20496;-69
2021/08/29 03:39:36;;;;;;;1.30;1.20;;;;;22.40;100767.00;;;;2070406;28;20623;-69
2021/08/29 03:40:38;;;;;;;1.63;1.07;;;;;22.40;100765.00;;;;2070617;28;20218;-69
2021/08/29 03:41:39;;;;;;;1.52;1.40;;;;;22.40;100767.00;;;;2062588;28;20226;-69
2021/08/29 03:42:40;;;;;;;1.52;1.30;;;;;22.40;100765.00;;;;2062777;28;20242;-69
2021/08/29 03:43:40;;;;;;;1.83;1.33;;;;;22.40;100761.00;;;;2070617;28;20724;-69
2021/08/29 03:44:41;;;;;;;2.23;1.40;;;;;22.40;100760.00;;;;2070458;28;20244;-69
2021/08/29 03:45:42;;;;;;;1.73;1.20;;;;;22.40;100755.00;;;;2071568;28;20221;-69
2021/08/29 03:46:42;;;;;;;3.10;1.53;;;;;22.40;100764.00;;;;2071503;28;20225;-69
2021/08/29 03:47:43;;;;;;;1.43;1.30;;;;;22.40;100757.00;;;;2070816;28;20465;-69
2021/08/29 03:48:44;;;;;;;1.57;1.47;;;;;22.40;100752.00;;;;2071306;28;20638;-69
2021/08/29 03:49:44;;;;;;;1.55;1.40;;;;;22.40;100756.00;;;;2071065;28;20240;-69
2021/08/29 03:50:45;;;;;;;1.27;1.17;;;;;22.40;100757.00;;;;2063083;28;20235;-69
2021/08/29 03:51:45;;;;;;;1.70;1.50;;;;;22.50;100751.00;;;;2062414;28;20234;-69
2021/08/29 03:52:46;;;;;;;1.80;1.30;;;;;22.40;100752.00;;;;2071411;28;20210;-69
2021/08/29 03:53:46;;;;;;;1.20;1.10;;;;;22.40;100753.00;;;;2070962;28;20597;-69
2021/08/29 03:54:47;;;;;;;1.43;1.30;;;;;22.40;100758.00;;;;2071248;28;20602;-69
2021/08/29 03:55:47;;;;;;;1.53;1.30;;;;;22.40;100752.00;;;;2063062;28;20218;-69
2021/08/29 03:56:47;;;;;;;1.23;1.13;;;;;22.40;100741.00;;;;2063016;28;20670;-69
2021/08/29 03:57:50;;;;;;;1.70;1.23;;;;;22.40;100757.00;;;;2079428;28;20636;-69
2021/08/29 03:58:50;;;;;;;1.20;1.10;;;;;22.40;100750.00;;;;2071036;28;20775;-69
2021/08/29 03:59:51;;;;;;;1.40;1.23;;;;;22.40;100752.00;;;;2071179;28;20310;-69
2021/08/29 04:00:51;;;;;;;1.30;1.20;;;;;22.40;100757.00;;;;2071839;28;20305;-69
2021/08/29 04:01:52;;;;;;;1.57;1.40;;;;;22.40;100757.00;;;;2068092;28;20693;-69
2021/08/29 04:02:52;;;;;;;1.53;1.40;;;;;22.40;100755.00;;;;2071738;28;20217;-69
2021/08/29 04:03:53;;;;;;;1.20;1.10;;;;;22.50;100755.00;;;;2071600;28;20210;-69
2021/08/29 04:04:53;;;;;;;1.30;1.20;;;;;22.50;100751.00;;;;2071718;28;20237;-69
2021/08/29 04:05:54;;;;;;;1.90;1.50;;;;;22.50;100763.00;;;;2071680;28;20264;-69
2021/08/29 04:06:54;;;;;;;1.80;1.50;;;;;22.40;100757.00;;;;2071709;28;20732;-69
2021/08/29 04:07:55;;;;;;;1.30;1.20;;;;;22.50;100758.00;;;;2071657;28;20751;-69
2021/08/29 04:08:55;;;;;;;1.40;1.30;;;;;22.50;100756.00;;;;2071034;28;20610;-69
2021/08/29 04:09:55;;;;;;;2.27;1.30;;;;;22.40;100752.00;;;;2071065;28;20291;-69
2021/08/29 04:10:59;;;;;;;1.23;1.13;;;;;22.40;100760.00;;;;2071225;28;20264;-69
2021/08/29 04:12:00;;;;;;;1.38;1.27;;;;;22.40;100751.00;;;;2071193;28;20714;-69
2021/08/29 04:13:00;;;;;;;1.40;1.30;;;;;22.40;100759.00;;;;2070122;28;20248;-69
2021/08/29 04:14:01;;;;;;;1.13;1.13;;;;;22.40;100752.00;;;;2071003;28;20218;-69
2021/08/29 04:15:01;;;;;;;1.40;1.30;;;;;22.40;100757.00;;;;2070702;28;20233;-69
2021/08/29 04:16:02;;;;;;;1.60;1.33;;;;;22.40;100755.00;;;;2071843;28;21060;-69
2021/08/29 04:17:03;;;;;;;1.10;1.00;;;;;22.40;100759.00;;;;2071660;28;20352;-69
2021/08/29 04:18:05;;;;;;;1.80;1.33;;;;;22.40;100748.00;;;;2071176;28;20264;-69
2021/08/29 04:19:05;;;;;;;1.40;1.30;;;;;22.40;100754.00;;;;2062950;28;20222;-69
2021/08/29 04:20:06;;;;;;;1.13;1.03;;;;;22.40;100755.00;;;;2071099;28;20670;-69
2021/08/29 04:21:07;;;;;;;1.70;1.43;;;;;22.40;100751.00;;;;2069926;28;20296;-69
2021/08/29 04:22:09;;;;;;;1.83;1.67;;;;;22.40;100748.00;;;;2070658;28;20456;-69
2021/08/29 04:23:10;;;;;;;1.38;1.15;;;;;22.40;100755.00;;;;2062414;28;20449;-69
2021/08/29 04:24:11;;;;;;;1.37;1.27;;;;;22.40;100745.00;;;;2054915;28;20215;-69
2021/08/29 04:25:12;;;;;;;1.37;1.23;;;;;22.40;100749.00;;;;2071223;28;20756;-69
2021/08/29 04:26:12;;;;;;;1.77;1.35;;;;;22.40;100753.00;;;;2071402;28;20241;-69
2021/08/29 04:27:12;;;;;;;1.40;1.30;;;;;22.40;100753.00;;;;2071816;28;20351;-69
2021/08/29 04:28:13;;;;;;;1.47;1.33;;;;;22.40;100752.00;;;;2071183;28;20210;-69
2021/08/29 04:29:13;;;;;;;1.40;1.30;;;;;22.40;100747.00;;;;2069648;28;20217;-69
2021/08/29 04:30:14;;;;;;;1.67;1.57;;;;;22.40;100749.00;;;;2071674;28;20228;-69
2021/08/29 04:31:17;;;;;;;1.80;1.70;;;;;22.40;100744.00;;;;2071333;28;20222;-69
2021/08/29 04:32:18;;;;;;;1.50;1.40;;;;;22.40;100750.00;;;;2070948;28;20998;-69
2021/08/29 04:33:18;;;;;;;1.67;1.50;;;;;22.40;100744.00;;;;2070256;28;20228;-69
2021/08/29 04:34:19;;;;;;;1.40;1.30;;;;;22.40;100747.00;;;;2070847;28;20219;-69
2021/08/29 04:35:19;;;;;;;1.40;1.30;;;;;22.40;100748.00;;;;2070959;28;20250;-69
2021/08/29 04:36:19;;;;;;;1.53;1.37;;;;;22.40;100745.00;;;;2070943;28;20343;-69
2021/08/29 04:37:20;;;;;;;1.40;1.30;;;;;22.40;100751.00;;;;2070943;28;20214;-69
2021/08/29 04:38:20;;;;;;;1.30;1.20;;;;;22.40;100751.00;;;;2071742;28;20225;-69
2021/08/29 04:39:20;;;;;;;1.20;1.10;;;;;22.40;100748.00;;;;2071535;28;20214;-69
2021/08/29 04:40:21;;;;;;;1.30;1.20;;;;;22.40;100749.00;;;;2070947;28;20783;-69
2021/08/29 04:41:21;;;;;;;1.37;1.23;;;;;22.40;100744.00;;;;2070636;28;20214;-69
2021/08/29 04:42:21;;;;;;;1.43;1.33;;;;;22.40;100747.00;;;;2071691;28;20222;-69
2021/08/29 04:43:22;;;;;;;1.63;1.53;;;;;22.40;100743.00;;;;2071607;28;20712;-68
2021/08/29 04:44:22;;;;;;;1.50;1.40;;;;;22.40;100743.00;;;;2071662;28;20711;-69
2021/08/29 04:45:22;;;;;;;1.53;1.43;;;;;22.40;100745.00;;;;2071484;28;20704;-69
2021/08/29 04:46:23;;;;;;;1.47;1.17;;;;;22.40;100744.00;;;;2071776;28;20586;-68
2021/08/29 04:47:23;;;;;;;1.90;1.73;;;;;22.40;100740.00;;;;2069826;28;20655;-69
2021/08/29 04:48:24;;;;;;;1.53;1.43;;;;;22.40;100737.00;;;;2070942;28;20217;-69
2021/08/29 04:49:24;;;;;;;1.80;1.37;;;;;22.40;100735.00;;;;2062770;28;20218;-69
2021/08/29 04:50:24;;;;;;;1.53;1.30;;;;;22.40;100727.00;;;;2070899;28;20584;-69
2021/08/29 04:51:25;;;;;;;1.43;1.20;;;;;22.40;100742.00;;;;2070175;28;20779;-69
2021/08/29 04:52:25;;;;;;;1.40;1.20;;;;;22.40;100748.00;;;;2066741;28;20883;-69
2021/08/29 04:53:25;;;;;;;2.07;1.30;;;;;22.40;100744.00;;;;2068998;28;20225;-69
2021/08/29 04:54:25;;;;;;;1.40;1.30;;;;;22.40;100745.00;;;;2071625;28;20221;-69
2021/08/29 04:55:26;;;;;;;1.70;1.37;;;;;22.40;100748.00;;;;2071695;28;20214;-69
2021/08/29 04:56:26;;;;;;;1.47;1.13;;;;;22.40;100749.00;;;;2071085;28;20222;-69
2021/08/29 04:57:26;;;;;;;1.80;1.30;;;;;22.40;100748.00;;;;2071676;28;20589;-70
2021/08/29 04:58:27;;;;;;;1.70;1.20;;;;;22.40;100740.00;;;;2071698;28;20222;-69
2021/08/29 04:59:27;;;;;;;1.60;1.50;;;;;22.40;100746.00;;;;2067096;28;20297;-69
2021/08/29 05:00:28;;;;;;;1.77;1.67;;;;;22.40;100744.00;;;;2070971;28;20221;-69
2021/08/29 05:01:30;;;;;;;1.77;1.60;;;;;22.40;100747.00;;;;2071584;28;20225;-69
2021/08/29 05:02:31;;;;;;;1.02;0.93;;;;;22.40;100749.00;;;;2071654;28;20242;-69
2021/08/29 05:03:31;;;;;;;1.60;1.50;;;;;22.40;100737.00;;;;2070827;28;20309;-69